• Join FlightAware (Why Join?)
  • Login
  • US Flag 
12:46AM EDT


 

Airport Tracker/Info


-or-


 

Live Flight TrackerFlight Track Log ✈ UAL4380 ✈ 12-Apr-2013 ✈ KMFE - KIAH

Flight Track Log - Related Links

Times and Time Zones

All times are in EDT time to prevent confusion due to time zone crossing. See the UAL4380 flight status page for this flight to view local times or setup timezone preferences in your user account.

Time Position Orientation Groundspeed Altitude Reporting Facility
EDT Latitude Longitude Course Direction KTS MPH feet Rate Location/Type
06:37AM 26.1547 -98.2225 22° Northeast 145 167 1,100  Level Houston Center
06:38AM 26.1794 -98.1772 59° Northeast 224 258 3,000 1,140 Climbing Houston Center
06:39AM 26.2211 -98.1758 North 234 269 3,100 240 Climbing Houston Center
06:39AM 26.2478 -98.1683 14° North 249 287 3,300 1,800 Climbing Houston Center
06:40AM 26.4269 -98.1116 24° Northeast  Level FlightAware Approximate
06:40AM 26.2883 -98.1525 19° North 253 291 4,900  Level Houston Center
06:40AM 26.3144 -98.1411 21° North 258 297 6,100 2,460 Climbing Houston Center
06:41AM 26.4913 -98.0794 24° Northeast  Level FlightAware Approximate
06:41AM 26.3583 -98.1214 22° Northeast 267 307 7,400  Level Houston Center
06:41AM 26.3867 -98.1083 22° Northeast 275 316 8,800 3,300 Climbing Houston Center
06:42AM 26.5558 -98.0474 22° Northeast  Level FlightAware Approximate
06:42AM 26.4319 -98.0892 21° North 281 323 10,800  Level Houston Center
06:43AM 26.5050 -98.0592 20° North 279 321 12,700 1,740 Climbing Houston Center
06:44AM 26.5858 -98.0239 21° North 308 354 14,300 1,560 Climbing Houston Center
06:45AM 26.6736 -97.9853 21° North 335 386 15,900 1,500 Climbing Houston Center
06:46AM 26.7625 -97.9292 29° Northeast 361 415 17,400 1,500 Climbing Houston Center
06:47AM 26.8539 -97.8742 28° Northeast 372 428 18,900 1,380 Climbing Houston Center
06:48AM 26.9461 -97.8169 29° Northeast 381 438 20,200 1,200 Climbing Houston Center
06:49AM 27.0419 -97.7564 29° Northeast 393 452 21,400 1,140 Climbing Houston Center
06:50AM 27.1344 -97.7017 28° Northeast 429 494 22,600 1,440 Climbing Houston Center
06:51AM 27.2458 -97.6306 30° Northeast 406 467 24,400 1,200 Climbing Houston Center
06:52AM 27.3478 -97.5661 29° Northeast 419 482 25,000 240 Climbing Houston Center
06:53AM 27.4592 -97.4972 29° Northeast 451 519 25,000  Level Houston Center
06:54AM 27.5753 -97.4250 29° Northeast 473 544 25,000  Level Houston Center
06:55AM 27.6944 -97.3503 29° Northeast 485 558 25,000  Level Houston Center
06:56AM 27.8128 -97.2761 29° Northeast 488 562 25,000  Level Houston Center
06:57AM 27.9322 -97.2019 29° Northeast 488 562 25,000  Level Houston Center
06:58AM 28.0578 -97.1219 29° Northeast 486 559 25,000  Level Houston Center
06:59AM 28.1756 -97.0469 29° Northeast 486 559 25,000  Level Houston Center
07:00AM 28.2944 -96.9742 28° Northeast 485 558 25,000  Level Houston Center
07:01AM 28.4122 -96.8983 30° Northeast 487 560 25,000  Level Houston Center
07:02AM 28.5289 -96.8225 30° Northeast 485 558 25,000  Level Houston Center
07:03AM 28.6472 -96.7489 29° Northeast 485 558 25,000  Level Houston Center
07:04AM 28.7636 -96.6733 30° Northeast 484 557 25,000 -480 Level Houston Center
07:05AM 28.8794 -96.5953 31° Northeast 485 558 24,100 -1,380 Descending Houston Center
07:05AM 28.9439 -96.5439 35° Northeast 485 558 22,700 -1,920 Descending Houston Center
07:06AM 28.9856 -96.5089 36° Northeast 473 544 22,200 -1,980 Descending Houston Center
07:06AM 29.0222 -96.4781 36° Northeast 462 532 21,500 -1,980 Descending Houston Center
07:07AM 29.0869 -96.4272 34° Northeast 453 521 20,200 -2,100 Descending Houston Center
07:07AM 29.1264 -96.3950 36° Northeast 444 511 19,400 -1,920 Descending Houston Center
07:08AM 29.1856 -96.3475 35° Northeast 441 507 18,300 -1,980 Descending Houston Center
07:08AM 29.2286 -96.3122 36° Northeast 430 495 17,400 -1,980 Descending Houston Center
07:09AM 29.2794 -96.2697 36° Northeast 425 489 16,300 -1,920 Descending Houston Center
07:09AM 29.3306 -96.2292 35° Northeast 415 478 15,300 -1,920 Descending Houston Center
07:10AM 29.3708 -96.1947 37° Northeast 409 471 14,400 -1,620 Descending Houston Center
07:10AM 29.4344 -96.1431 35° Northeast 396 456 13,500 -1,320 Descending Houston Center
07:11AM 29.4606 -96.1219 35° Northeast 400 460 13,100 -1,440 Descending Houston Center
07:11AM 29.5111 -96.0817 35° Northeast 395 455 12,200 -1,800 Descending Houston Center
07:12AM 29.5636 -96.0372 36° Northeast 381 438 11,300 -1,500 Descending Houston Center
07:12AM 29.5969 -96.0097 36° Northeast 345 397 10,700 -1,140 Descending Houston Center
07:13AM 29.6367 -95.9764 36° Northeast 336 387 10,200 -720 Descending Houston Center
07:13AM 29.6656 -95.9536 34° Northeast 296 341 10,000 -1,200 Descending Houston Center
07:14AM 29.7003 -95.9250 36° Northeast 295 339 9,000 -1,740 Descending Houston Center
07:14AM 29.7264 -95.9036 35° Northeast 259 298 8,300 -1,680 Descending Houston Center
07:15AM 29.7544 -95.8669 49° Northeast 280 322 7,300 -1,800 Descending Houston Center
07:15AM 29.7769 -95.8350 51° Northeast 280 322 6,500 -1,800 Descending Houston Center
07:16AM 29.8058 -95.7975 48° Northeast 290 334 5,500 -1,800 Descending Houston Center
07:16AM 29.8278 -95.7667 51° Northeast 281 323 4,700 -1,500 Descending Houston Center
07:17AM 29.8556 -95.7292 49° Northeast 296 341 4,000 -1,140 Descending Houston Center
07:17AM 29.8744 -95.7011 52° Northeast 265 305 3,600 -840 Descending Houston Center
07:18AM 29.9006 -95.6683 47° Northeast 253 291 3,200 -600 Descending Houston Center
07:18AM 29.9208 -95.6353 55° Northeast 242 278 3,000 -240 Descending Houston Center
07:19AM 29.9447 -95.6056 47° Northeast 255 293 3,000  Level Houston Center
07:19AM 29.9658 -95.5744 52° Northeast 252 290 3,000  Level Houston Center
07:20AM 29.9889 -95.5447 48° Northeast 250 288 3,000 -240 Level Houston Center
07:20AM 29.9914 -95.5089 85° East 227 261 2,800 -480 Descending Houston Center